createdAt,value
2023-05-02T00:00:37.044Z,99.90
2023-05-02T00:07:20.516Z,99.90
2023-05-02T00:14:02.821Z,99.90
2023-05-02T00:20:45.511Z,99.90
2023-05-02T00:27:29.454Z,99.90
2023-05-02T00:34:11.828Z,99.90
2023-05-02T00:40:54.185Z,99.90
2023-05-02T00:47:36.515Z,99.90
2023-05-02T00:54:18.842Z,99.90
2023-05-02T01:01:12.432Z,99.90
2023-05-02T01:07:57.757Z,99.90
2023-05-02T01:14:42.688Z,99.90
2023-05-02T01:21:25.579Z,99.90
2023-05-02T01:28:39.957Z,99.90
2023-05-02T01:35:24.860Z,99.90
2023-05-02T01:42:07.161Z,99.90
2023-05-02T01:48:52.031Z,99.90
2023-05-02T01:55:36.538Z,99.90
2023-05-02T02:02:19.742Z,99.90
2023-05-02T02:09:03.689Z,99.90
2023-05-02T02:15:52.862Z,99.90
2023-05-02T02:22:39.120Z,99.90
2023-05-02T02:29:21.430Z,99.90
2023-05-02T02:36:17.611Z,99.90
2023-05-02T02:43:39.567Z,99.90
2023-05-02T02:50:50.976Z,99.90
2023-05-02T02:57:59.020Z,99.90
2023-05-02T03:04:43.276Z,99.90
2023-05-02T03:11:27.163Z,99.90
2023-05-02T03:18:10.203Z,99.90
2023-05-02T03:24:52.879Z,99.90
2023-05-02T03:31:35.363Z,99.90
2023-05-02T03:38:17.823Z,99.90
2023-05-02T03:45:03.871Z,99.90
2023-05-02T03:51:46.473Z,99.90
2023-05-02T03:58:32.802Z,99.90
2023-05-02T04:05:16.161Z,99.90
2023-05-02T04:11:59.897Z,99.90
2023-05-02T04:18:42.272Z,99.90
2023-05-02T04:25:25.244Z,99.90
2023-05-02T04:32:11.566Z,99.90
2023-05-02T04:38:54.961Z,99.90
2023-05-02T04:45:37.956Z,99.90
2023-05-02T04:52:25.352Z,99.90
2023-05-02T04:59:07.812Z,99.90
2023-05-02T05:05:50.737Z,99.90
2023-05-02T05:12:35.912Z,99.90
2023-05-02T05:19:18.332Z,99.90
2023-05-02T05:26:11.248Z,99.90
2023-05-02T05:32:55.508Z,99.90
2023-05-02T05:39:37.945Z,99.90
2023-05-02T05:46:21.298Z,99.90
2023-05-02T05:53:03.638Z,99.90
2023-05-02T05:59:46.377Z,99.90
2023-05-02T06:06:29.989Z,99.90
2023-05-02T06:13:12.563Z,99.90
2023-05-02T06:19:58.217Z,99.90
2023-05-02T06:26:40.927Z,99.90
2023-05-02T06:33:23.236Z,99.90
2023-05-02T06:40:06.086Z,99.90
2023-05-02T06:46:48.600Z,99.90
2023-05-02T06:53:33.077Z,99.90
2023-05-02T07:00:19.352Z,99.90
2023-05-02T07:07:01.726Z,99.90
2023-05-02T07:13:44.293Z,99.90
2023-05-02T07:20:26.575Z,99.90
2023-05-02T07:27:10.178Z,99.90
2023-05-02T07:33:52.454Z,99.90
2023-05-02T07:40:34.720Z,99.90
2023-05-02T07:47:17.018Z,99.90
2023-05-02T07:53:59.482Z,99.90
2023-05-02T08:00:42.054Z,99.90
2023-05-02T08:07:24.418Z,99.90
2023-05-02T08:14:06.689Z,99.90
2023-05-02T08:20:50.659Z,99.90
2023-05-02T08:27:35.222Z,99.90
2023-05-02T08:34:17.506Z,99.90
2023-05-02T08:41:00.859Z,99.90
2023-05-02T08:47:44.677Z,99.90
2023-05-02T08:54:27.826Z,99.90
2023-05-02T09:01:16.794Z,99.90
2023-05-02T09:07:59.321Z,99.90
2023-05-02T09:14:43.644Z,99.90
2023-05-02T09:21:34.875Z,99.90
2023-05-02T09:28:17.226Z,99.90
2023-05-02T09:35:06.624Z,99.90
2023-05-02T09:41:49.496Z,99.90
2023-05-02T09:48:34.027Z,99.90
2023-05-02T09:55:25.539Z,97.70
2023-05-02T10:02:11.075Z,96.40
2023-05-02T10:08:53.483Z,96.70
2023-05-02T10:15:42.327Z,95.30
2023-05-02T10:22:25.851Z,93.00
2023-05-02T10:29:08.683Z,90.00
2023-05-02T10:35:51.166Z,88.90
2023-05-02T10:42:39.202Z,85.80
2023-05-02T10:49:23.744Z,86.40
2023-05-02T10:56:26.458Z,91.60
2023-05-02T11:03:10.986Z,93.50
2023-05-02T11:09:53.370Z,93.50
2023-05-02T11:17:00.775Z,93.00
2023-05-02T11:23:43.753Z,91.40
2023-05-02T11:30:40.855Z,95.40
2023-05-02T11:37:23.156Z,95.10
2023-05-02T11:44:05.539Z,94.40
2023-05-02T11:50:51.050Z,96.80
2023-05-02T11:57:33.834Z,95.50
2023-05-02T12:04:16.241Z,96.80
2023-05-02T12:10:58.524Z,96.80
2023-05-02T12:17:42.960Z,95.80
2023-05-02T12:24:25.520Z,95.50
2023-05-02T12:31:11.051Z,95.00
2023-05-02T12:37:56.783Z,97.30
2023-05-02T12:44:40.773Z,99.90
2023-05-02T12:51:28.490Z,99.90
2023-05-02T12:58:14.649Z,99.90
2023-05-02T13:04:56.977Z,99.90
2023-05-02T13:11:39.460Z,99.90
2023-05-02T13:18:21.841Z,99.90
2023-05-02T13:25:24.251Z,98.50
2023-05-02T13:32:06.538Z,95.90
2023-05-02T13:38:48.802Z,93.50
2023-05-02T13:45:31.163Z,94.80
2023-05-02T13:52:13.560Z,94.00
2023-05-02T13:58:56.174Z,94.30
2023-05-02T14:05:40.968Z,94.40
2023-05-02T14:12:23.312Z,97.80
2023-05-02T14:19:05.862Z,97.10
2023-05-02T14:25:48.184Z,97.10
2023-05-02T14:32:30.559Z,96.90
2023-05-02T14:39:12.995Z,96.60
2023-05-02T14:45:56.694Z,97.30
2023-05-02T14:52:39.050Z,97.10
2023-05-02T14:59:21.717Z,95.60
2023-05-02T15:06:04.254Z,95.60
2023-05-02T15:12:50.617Z,94.00
2023-05-02T15:19:32.906Z,90.70
2023-05-02T15:26:15.244Z,88.30
2023-05-02T15:32:57.723Z,90.70
2023-05-02T15:39:40.250Z,90.10
2023-05-02T15:46:22.729Z,90.00
2023-05-02T15:53:05.081Z,90.80
2023-05-02T15:59:47.397Z,86.50
2023-05-02T16:06:30.929Z,86.50
2023-05-02T16:13:13.268Z,86.00
2023-05-02T16:19:55.582Z,86.70
2023-05-02T16:26:37.905Z,86.10
2023-05-02T16:33:21.450Z,86.50
2023-05-02T16:40:05.630Z,89.80
2023-05-02T16:46:48.702Z,87.10
2023-05-02T16:53:31.291Z,85.70
2023-05-02T17:00:14.805Z,83.40
2023-05-02T17:06:57.151Z,85.90
2023-05-02T17:13:39.569Z,83.10
2023-05-02T17:20:21.895Z,85.10
2023-05-02T17:27:04.248Z,86.00
2023-05-02T17:33:47.475Z,89.00
2023-05-02T17:40:29.838Z,87.90
2023-05-02T17:47:12.970Z,88.00
2023-05-02T17:53:55.422Z,90.80
2023-05-02T18:00:38.071Z,92.00
2023-05-02T18:07:23.999Z,92.50
2023-05-02T18:14:06.368Z,93.50
2023-05-02T18:20:48.758Z,93.60
2023-05-02T18:27:31.088Z,95.60
2023-05-02T18:34:13.443Z,97.00
2023-05-02T18:40:55.754Z,99.50
2023-05-02T18:47:38.073Z,99.90
2023-05-02T18:54:20.599Z,99.90
2023-05-02T19:01:14.937Z,99.90
2023-05-02T19:07:57.532Z,99.90
2023-05-02T19:14:40.171Z,99.90
2023-05-02T19:21:22.611Z,99.90
2023-05-02T19:28:05.041Z,99.90
2023-05-02T19:34:47.442Z,99.90
2023-05-02T19:41:29.822Z,99.90
2023-05-02T19:48:12.846Z,99.90
2023-05-02T19:54:56.546Z,99.90
2023-05-02T20:01:38.836Z,99.90
2023-05-02T20:08:23.795Z,99.90
2023-05-02T20:15:06.630Z,99.90
2023-05-02T20:21:48.949Z,99.90
2023-05-02T20:28:31.293Z,99.90
2023-05-02T20:35:13.587Z,99.90
2023-05-02T20:41:58.152Z,99.90
2023-05-02T20:48:40.424Z,99.90
2023-05-02T20:55:23.171Z,99.90
2023-05-02T21:02:08.438Z,99.90
2023-05-02T21:08:51.120Z,99.90
2023-05-02T21:15:36.629Z,99.90
2023-05-02T21:22:18.977Z,99.90
2023-05-02T21:29:01.343Z,99.90
2023-05-02T21:35:44.464Z,99.90
2023-05-02T21:42:26.788Z,99.90
2023-05-02T21:49:09.149Z,99.90
2023-05-02T21:55:52.683Z,99.90
2023-05-02T22:02:35.260Z,99.90
2023-05-02T22:09:18.478Z,99.90
2023-05-02T22:16:00.808Z,99.90
2023-05-02T22:22:43.076Z,99.90
2023-05-02T22:29:25.379Z,99.90
2023-05-02T22:36:08.660Z,99.90
2023-05-02T22:42:51.186Z,99.90
2023-05-02T22:49:33.932Z,99.90
2023-05-02T22:56:16.270Z,99.90
2023-05-02T23:02:58.688Z,99.90
2023-05-02T23:09:40.979Z,99.90
2023-05-02T23:16:23.955Z,99.90
2023-05-02T23:23:06.268Z,99.90
2023-05-02T23:29:49.124Z,99.90
2023-05-02T23:36:32.897Z,99.90
2023-05-02T23:43:15.237Z,99.90
2023-05-02T23:49:57.490Z,99.90
2023-05-02T23:56:39.933Z,99.90
